sensor_id;sensor_type;location;lat;lon;timestamp;pressure;altitude;pressure_sealevel;temperature;humidity
54194;BME280;40102;50.906;6.972;2023-02-12T00:00:42;103155.16;;;7.26;90.98
54194;BME280;40102;50.906;6.972;2023-02-12T00:03:08;103160.50;;;7.21;91.63
54194;BME280;40102;50.906;6.972;2023-02-12T00:05:36;103166.72;;;7.22;91.75
54194;BME280;40102;50.906;6.972;2023-02-12T00:08:02;103163.16;;;7.23;91.76
54194;BME280;40102;50.906;6.972;2023-02-12T00:10:27;103157.84;;;7.24;91.62
54194;BME280;40102;50.906;6.972;2023-02-12T00:12:53;103158.72;;;7.25;91.58
54194;BME280;40102;50.906;6.972;2023-02-12T00:15:19;103153.41;;;7.23;91.59
54194;BME280;40102;50.906;6.972;2023-02-12T00:17:44;103164.06;;;7.19;91.84
54194;BME280;40102;50.906;6.972;2023-02-12T00:20:10;103162.31;;;7.14;92.20
54194;BME280;40102;50.906;6.972;2023-02-12T00:22:35;103164.97;;;7.16;92.71
54194;BME280;40102;50.906;6.972;2023-02-12T00:25:00;103153.41;;;7.19;92.51
54194;BME280;40102;50.906;6.972;2023-02-12T00:27:26;103148.09;;;7.15;92.54
54194;BME280;40102;50.906;6.972;2023-02-12T00:29:51;103147.22;;;7.18;92.77
54194;BME280;40102;50.906;6.972;2023-02-12T00:32:16;103146.31;;;7.19;92.45
54194;BME280;40102;50.906;6.972;2023-02-12T00:34:47;103148.09;;;7.20;92.56
54194;BME280;40102;50.906;6.972;2023-02-12T00:37:13;103144.53;;;7.20;92.34
54194;BME280;40102;50.906;6.972;2023-02-12T00:39:38;103155.16;;;7.26;92.37
54194;BME280;40102;50.906;6.972;2023-02-12T00:42:04;103142.75;;;7.25;91.93
54194;BME280;40102;50.906;6.972;2023-02-12T00:44:30;103152.50;;;7.29;91.88
54194;BME280;40102;50.906;6.972;2023-02-12T00:46:55;103147.19;;;7.29;91.78
54194;BME280;40102;50.906;6.972;2023-02-12T00:49:21;103146.28;;;7.27;91.78
54194;BME280;40102;50.906;6.972;2023-02-12T00:51:47;103153.41;;;7.26;91.82
54194;BME280;40102;50.906;6.972;2023-02-12T00:54:12;103146.28;;;7.27;91.52
54194;BME280;40102;50.906;6.972;2023-02-12T00:56:37;103159.59;;;7.25;91.56
54194;BME280;40102;50.906;6.972;2023-02-12T00:59:02;103141.00;;;7.18;91.63
54194;BME280;40102;50.906;6.972;2023-02-12T01:01:28;103148.09;;;7.23;91.73
54194;BME280;40102;50.906;6.972;2023-02-12T01:03:53;103147.19;;;7.26;91.60
54194;BME280;40102;50.906;6.972;2023-02-12T01:06:18;103153.41;;;7.23;91.47
54194;BME280;40102;50.906;6.972;2023-02-12T01:08:44;103148.97;;;7.22;91.55
54194;BME280;40102;50.906;6.972;2023-02-12T01:11:11;103158.72;;;7.22;91.65
54194;BME280;40102;50.906;6.972;2023-02-12T01:13:36;103147.22;;;7.20;92.11
54194;BME280;40102;50.906;6.972;2023-02-12T01:18:43;103159.63;;;7.18;92.20
54194;BME280;40102;50.906;6.972;2023-02-12T01:23:39;103151.66;;;7.10;92.54
54194;BME280;40102;50.906;6.972;2023-02-12T01:26:05;103154.34;;;7.08;93.02
54194;BME280;40102;50.906;6.972;2023-02-12T01:28:32;103150.78;;;7.08;92.99
54194;BME280;40102;50.906;6.972;2023-02-12T01:30:57;103148.13;;;7.05;93.23
54194;BME280;40102;50.906;6.972;2023-02-12T01:33:23;103155.22;;;7.09;93.48
54194;BME280;40102;50.906;6.972;2023-02-12T01:35:48;103141.03;;;7.07;93.51
54194;BME280;40102;50.906;6.972;2023-02-12T01:38:13;103148.13;;;7.11;93.40
54194;BME280;40102;50.906;6.972;2023-02-12T01:40:39;103146.38;;;7.04;93.28
54194;BME280;40102;50.906;6.972;2023-02-12T01:43:05;103147.28;;;6.97;93.55
54194;BME280;40102;50.906;6.972;2023-02-12T01:45:47;103142.84;;;6.94;94.17
54194;BME280;40102;50.906;6.972;2023-02-12T01:48:16;103137.53;;;6.83;94.48
54194;BME280;40102;50.906;6.972;2023-02-12T01:50:45;103141.97;;;6.78;94.91
54194;BME280;40102;50.906;6.972;2023-02-12T01:53:12;103141.09;;;6.79;95.79
54194;BME280;40102;50.906;6.972;2023-02-12T01:55:45;103141.97;;;6.85;95.92
54194;BME280;40102;50.906;6.972;2023-02-12T01:58:11;103152.59;;;6.91;96.01
54194;BME280;40102;50.906;6.972;2023-02-12T02:00:38;103140.19;;;6.93;95.89
54194;BME280;40102;50.906;6.972;2023-02-12T02:03:03;103147.25;;;7.00;95.45
54194;BME280;40102;50.906;6.972;2023-02-12T02:05:46;103142.81;;;7.02;95.07
54194;BME280;40102;50.906;6.972;2023-02-12T02:08:13;103143.69;;;7.07;94.80
54194;BME280;40102;50.906;6.972;2023-02-12T02:10:39;103138.38;;;7.05;94.58
54194;BME280;40102;50.906;6.972;2023-02-12T02:13:05;103141.91;;;7.12;94.20
54194;BME280;40102;50.906;6.972;2023-02-12T02:15:54;103140.16;;;7.06;93.51
54194;BME280;40102;50.906;6.972;2023-02-12T02:18:46;103138.38;;;7.10;93.41
54194;BME280;40102;50.906;6.972;2023-02-12T02:21:43;103140.16;;;6.99;93.22
54194;BME280;40102;50.906;6.972;2023-02-12T02:27:07;103148.19;;;6.67;94.43
54194;BME280;40102;50.906;6.972;2023-02-12T02:32:12;103142.91;;;6.45;96.15
54194;BME280;40102;50.906;6.972;2023-02-12T02:34:52;103134.03;;;6.36;97.15
54194;BME280;40102;50.906;6.972;2023-02-12T02:37:55;103138.47;;;6.40;98.00
54194;BME280;40102;50.906;6.972;2023-02-12T02:40:27;103134.94;;;6.41;98.15
54194;BME280;40102;50.906;6.972;2023-02-12T02:43:01;103137.59;;;6.44;98.49
54194;BME280;40102;50.906;6.972;2023-02-12T02:45:41;103131.38;;;6.45;98.63
54194;BME280;40102;50.906;6.972;2023-02-12T02:48:15;103138.47;;;6.52;99.03
54194;BME280;40102;50.906;6.972;2023-02-12T02:50:46;103137.56;;;6.62;99.22
54194;BME280;40102;50.906;6.972;2023-02-12T02:53:19;103127.81;;;6.70;98.60
54194;BME280;40102;50.906;6.972;2023-02-12T02:55:49;103135.78;;;6.79;97.92
54194;BME280;40102;50.906;6.972;2023-02-12T02:58:20;103133.09;;;6.84;97.44
54194;BME280;40102;50.906;6.972;2023-02-12T03:00:56;103126.91;;;6.85;96.72
54194;BME280;40102;50.906;6.972;2023-02-12T03:03:29;103131.31;;;6.94;96.30
54194;BME280;40102;50.906;6.972;2023-02-12T03:06:03;103135.75;;;6.96;95.78
54194;BME280;40102;50.906;6.972;2023-02-12T03:08:36;103126.88;;;6.93;95.51
54194;BME280;40102;50.906;6.972;2023-02-12T03:11:11;103129.53;;;6.96;95.27
54194;BME280;40102;50.906;6.972;2023-02-12T03:13:49;103129.53;;;6.97;94.97
54194;BME280;40102;50.906;6.972;2023-02-12T03:16:25;103131.28;;;7.01;94.54
54194;BME280;40102;50.906;6.972;2023-02-12T03:19:01;103133.94;;;7.03;94.28
54194;BME280;40102;50.906;6.972;2023-02-12T03:21:45;103125.06;;;7.05;94.02
54194;BME280;40102;50.906;6.972;2023-02-12T03:24:28;103129.50;;;7.09;93.85
54194;BME280;40102;50.906;6.972;2023-02-12T03:27:19;103132.16;;;7.09;93.39
54194;BME280;40102;50.906;6.972;2023-02-12T03:29:45;103129.50;;;7.08;93.26
54194;BME280;40102;50.906;6.972;2023-02-12T03:32:32;103127.72;;;7.11;93.03
54194;BME280;40102;50.906;6.972;2023-02-12T03:35:13;103124.19;;;7.08;93.13
54194;BME280;40102;50.906;6.972;2023-02-12T03:37:55;103121.50;;;7.08;92.76
54194;BME280;40102;50.906;6.972;2023-02-12T03:43:07;103121.53;;;7.00;92.22
54194;BME280;40102;50.906;6.972;2023-02-12T03:45:49;103129.53;;;6.97;92.89
54194;BME280;40102;50.906;6.972;2023-02-12T03:48:40;103130.41;;;6.98;93.25
54194;BME280;40102;50.906;6.972;2023-02-12T03:51:08;103121.53;;;6.99;93.45
54194;BME280;40102;50.906;6.972;2023-02-12T03:53:36;103129.53;;;7.02;93.35
54194;BME280;40102;50.906;6.972;2023-02-12T03:56:05;103119.75;;;6.99;93.31
54194;BME280;40102;50.906;6.972;2023-02-12T03:58:35;103125.06;;;7.04;92.93
54194;BME280;40102;50.906;6.972;2023-02-12T04:01:02;103120.66;;;7.01;92.96
54194;BME280;40102;50.906;6.972;2023-02-12T04:03:29;103130.41;;;7.04;92.62
54194;BME280;40102;50.906;6.972;2023-02-12T04:05:55;103125.97;;;7.04;92.51
54194;BME280;40102;50.906;6.972;2023-02-12T04:08:20;103118.00;;;7.00;92.50
54194;BME280;40102;50.906;6.972;2023-02-12T04:11:00;103128.63;;;6.98;92.57
54194;BME280;40102;50.906;6.972;2023-02-12T04:14:00;103133.06;;;7.01;92.63
54194;BME280;40102;50.906;6.972;2023-02-12T04:17:05;103136.59;;;7.03;92.76
54194;BME280;40102;50.906;6.972;2023-02-12T04:19:43;103133.06;;;7.01;92.34
54194;BME280;40102;50.906;6.972;2023-02-12T04:22:35;103128.66;;;6.91;92.03
54194;BME280;40102;50.906;6.972;2023-02-12T04:25:18;103141.97;;;6.78;92.76
54194;BME280;40102;50.906;6.972;2023-02-12T04:27:55;103137.56;;;6.71;93.39
54194;BME280;40102;50.906;6.972;2023-02-12T04:30:28;103135.78;;;6.70;93.62
54194;BME280;40102;50.906;6.972;2023-02-12T04:32:59;103149.97;;;6.66;93.80
54194;BME280;40102;50.906;6.972;2023-02-12T04:38:26;103153.53;;;6.62;94.78
54194;BME280;40102;50.906;6.972;2023-02-12T04:40:52;103145.56;;;6.61;95.00
54194;BME280;40102;50.906;6.972;2023-02-12T04:43:33;103156.19;;;6.74;95.33
54194;BME280;40102;50.906;6.972;2023-02-12T04:45:58;103154.41;;;6.79;95.08
54194;BME280;40102;50.906;6.972;2023-02-12T04:48:24;103151.72;;;6.86;94.89
54194;BME280;40102;50.906;6.972;2023-02-12T04:50:49;103153.50;;;6.88;94.39
54194;BME280;40102;50.906;6.972;2023-02-12T04:53:15;103150.84;;;6.88;94.23
54194;BME280;40102;50.906;6.972;2023-02-12T04:55:40;103166.78;;;6.96;93.88
54194;BME280;40102;50.906;6.972;2023-02-12T04:58:06;103157.03;;;6.96;93.32
54194;BME280;40102;50.906;6.972;2023-02-12T05:00:31;103153.47;;;6.96;93.22
54194;BME280;40102;50.906;6.972;2023-02-12T05:02:57;103155.25;;;7.01;92.99
54194;BME280;40102;50.906;6.972;2023-02-12T05:05:23;103153.47;;;7.00;92.62
54194;BME280;40102;50.906;6.972;2023-02-12T05:07:48;103150.81;;;7.02;92.48
54194;BME280;40102;50.906;6.972;2023-02-12T05:10:14;103144.59;;;7.01;92.28
54194;BME280;40102;50.906;6.972;2023-02-12T05:12:39;103144.59;;;7.03;92.02
54194;BME280;40102;50.906;6.972;2023-02-12T05:15:05;103152.56;;;7.03;91.72
54194;BME280;40102;50.906;6.972;2023-02-12T05:17:30;103156.13;;;6.99;91.42
54194;BME280;40102;50.906;6.972;2023-02-12T05:19:56;103155.25;;;6.97;91.47
54194;BME280;40102;50.906;6.972;2023-02-12T05:22:21;103155.25;;;6.95;91.60
54194;BME280;40102;50.906;6.972;2023-02-12T05:24:46;103152.59;;;6.95;91.64
54194;BME280;40102;50.906;6.972;2023-02-12T05:27:12;103153.50;;;6.88;90.95
54194;BME280;40102;50.906;6.972;2023-02-12T05:29:37;103169.47;;;6.87;91.53
54194;BME280;40102;50.906;6.972;2023-02-12T05:32:03;103156.16;;;6.82;92.22
54194;BME280;40102;50.906;6.972;2023-02-12T05:34:29;103155.28;;;6.88;92.45
54194;BME280;40102;50.906;6.972;2023-02-12T05:36:54;103163.25;;;6.94;92.52
54194;BME280;40102;50.906;6.972;2023-02-12T05:39:20;103170.34;;;6.95;92.26
54194;BME280;40102;50.906;6.972;2023-02-12T05:41:45;103172.13;;;6.90;91.38
54194;BME280;40102;50.906;6.972;2023-02-12T05:44:10;103171.25;;;6.74;91.43
54194;BME280;40102;50.906;6.972;2023-02-12T05:46:37;103168.59;;;6.59;92.04
54194;BME280;40102;50.906;6.972;2023-02-12T05:49:02;103182.78;;;6.42;93.04
54194;BME280;40102;50.906;6.972;2023-02-12T05:51:28;103171.25;;;6.24;93.73
54194;BME280;40102;50.906;6.972;2023-02-12T05:53:57;103180.09;;;6.24;94.92
54194;BME280;40102;50.906;6.972;2023-02-12T05:56:26;103176.56;;;6.21;95.63
54194;BME280;40102;50.906;6.972;2023-02-12T05:58:58;103181.88;;;6.21;96.02
54194;BME280;40102;50.906;6.972;2023-02-12T06:01:27;103175.66;;;6.17;96.27
54194;BME280;40102;50.906;6.972;2023-02-12T06:03:53;103181.84;;;6.11;96.43
54194;BME280;40102;50.906;6.972;2023-02-12T06:06:18;103179.22;;;6.17;97.15
54194;BME280;40102;50.906;6.972;2023-02-12T06:08:47;103176.56;;;6.30;97.58
54194;BME280;40102;50.906;6.972;2023-02-12T06:11:13;103181.00;;;6.40;97.62
54194;BME280;40102;50.906;6.972;2023-02-12T06:13:39;103174.81;;;6.47;97.28
54194;BME280;40102;50.906;6.972;2023-02-12T06:16:05;103185.44;;;6.53;96.55
54194;BME280;40102;50.906;6.972;2023-02-12T06:18:34;103186.31;;;6.47;95.98
54194;BME280;40102;50.906;6.972;2023-02-12T06:21:02;103180.13;;;6.38;95.37
54194;BME280;40102;50.906;6.972;2023-02-12T06:23:27;103176.56;;;6.27;95.63
54194;BME280;40102;50.906;6.972;2023-02-12T06:25:55;103174.78;;;6.16;96.05
54194;BME280;40102;50.906;6.972;2023-02-12T06:28:21;103178.31;;;6.11;96.43
54194;BME280;40102;50.906;6.972;2023-02-12T06:30:46;103180.94;;;6.00;96.98
54194;BME280;40102;50.906;6.972;2023-02-12T06:33:11;103183.59;;;5.99;97.57
54194;BME280;40102;50.906;6.972;2023-02-12T06:35:37;103182.72;;;6.04;97.98
54194;BME280;40102;50.906;6.972;2023-02-12T06:38:02;103175.63;;;6.05;98.15
54194;BME280;40102;50.906;6.972;2023-02-12T06:40:27;103175.63;;;5.99;97.96
54194;BME280;40102;50.906;6.972;2023-02-12T06:42:53;103178.28;;;5.97;98.21
54194;BME280;40102;50.906;6.972;2023-02-12T06:45:18;103185.34;;;5.94;98.21
54194;BME280;40102;50.906;6.972;2023-02-12T06:47:44;103188.00;;;5.94;98.56
54194;BME280;40102;50.906;6.972;2023-02-12T06:50:09;103192.44;;;5.95;99.24
54194;BME280;40102;50.906;6.972;2023-02-12T06:52:35;103191.56;;;6.00;99.55
54194;BME280;40102;50.906;6.972;2023-02-12T06:55:00;103196.91;;;6.03;99.81
54194;BME280;40102;50.906;6.972;2023-02-12T06:57:25;103191.59;;;6.12;100.00
54194;BME280;40102;50.906;6.972;2023-02-12T06:59:51;103189.84;;;6.21;100.00
54194;BME280;40102;50.906;6.972;2023-02-12T07:02:16;103193.41;;;6.35;99.46
54194;BME280;40102;50.906;6.972;2023-02-12T07:04:41;103198.72;;;6.42;98.93
54194;BME280;40102;50.906;6.972;2023-02-12T07:07:07;103203.16;;;6.45;98.00
54194;BME280;40102;50.906;6.972;2023-02-12T07:09:33;103202.28;;;6.49;97.33
54194;BME280;40102;50.906;6.972;2023-02-12T07:11:58;103216.47;;;6.54;97.28
54194;BME280;40102;50.906;6.972;2023-02-12T07:14:24;103209.38;;;6.58;96.86
54194;BME280;40102;50.906;6.972;2023-02-12T07:16:53;103219.13;;;6.60;96.17
54194;BME280;40102;50.906;6.972;2023-02-12T07:19:18;103220.91;;;6.57;95.82
54194;BME280;40102;50.906;6.972;2023-02-12T07:21:43;103220.91;;;6.58;95.85
54194;BME280;40102;50.906;6.972;2023-02-12T07:24:10;103220.91;;;6.58;95.37
54194;BME280;40102;50.906;6.972;2023-02-12T07:26:39;103217.34;;;6.45;94.73
54194;BME280;40102;50.906;6.972;2023-02-12T07:29:05;103223.53;;;6.44;95.69
54194;BME280;40102;50.906;6.972;2023-02-12T07:31:30;103220.88;;;6.40;95.96
54194;BME280;40102;50.906;6.972;2023-02-12T07:33:58;103226.22;;;6.47;96.20
54194;BME280;40102;50.906;6.972;2023-02-12T07:36:25;103232.41;;;6.53;96.23
54194;BME280;40102;50.906;6.972;2023-02-12T07:38:50;103228.88;;;6.57;96.30
54194;BME280;40102;50.906;6.972;2023-02-12T07:41:27;103243.06;;;6.66;95.95
54194;BME280;40102;50.906;6.972;2023-02-12T07:44:02;103238.63;;;6.70;95.63
54194;BME280;40102;50.906;6.972;2023-02-12T07:46:33;103236.84;;;6.73;95.01
54194;BME280;40102;50.906;6.972;2023-02-12T07:49:01;103244.84;;;6.76;94.68
54194;BME280;40102;50.906;6.972;2023-02-12T07:51:28;103237.75;;;6.78;94.53
54194;BME280;40102;50.906;6.972;2023-02-12T07:53:54;103244.84;;;6.75;94.04
54194;BME280;40102;50.906;6.972;2023-02-12T07:56:21;103238.63;;;6.80;93.87
54194;BME280;40102;50.906;6.972;2023-02-12T07:58:49;103249.28;;;6.77;93.70
54194;BME280;40102;50.906;6.972;2023-02-12T08:03:43;103251.94;;;6.83;93.19
54194;BME280;40102;50.906;6.972;2023-02-12T08:06:17;103247.50;;;6.87;93.32
54194;BME280;40102;50.906;6.972;2023-02-12T08:08:43;103243.94;;;6.87;92.99
54194;BME280;40102;50.906;6.972;2023-02-12T08:11:10;103253.72;;;6.92;92.87
54194;BME280;40102;50.906;6.972;2023-02-12T08:13:37;103252.81;;;6.93;92.40
54194;BME280;40102;50.906;6.972;2023-02-12T08:16:07;103252.81;;;6.92;92.05
54194;BME280;40102;50.906;6.972;2023-02-12T08:18:33;103251.94;;;6.85;91.88
54194;BME280;40102;50.906;6.972;2023-02-12T08:21:03;103258.13;;;6.79;92.03
54194;BME280;40102;50.906;6.972;2023-02-12T08:23:29;103259.03;;;6.77;92.31
54194;BME280;40102;50.906;6.972;2023-02-12T08:26:04;103260.78;;;6.72;92.58
54194;BME280;40102;50.906;6.972;2023-02-12T08:28:29;103258.13;;;6.73;92.92
54194;BME280;40102;50.906;6.972;2023-02-12T08:30:59;103256.38;;;6.71;92.90
54194;BME280;40102;50.906;6.972;2023-02-12T08:33:24;103252.81;;;6.66;93.24
54194;BME280;40102;50.906;6.972;2023-02-12T08:35:59;103259.00;;;6.62;93.42
54194;BME280;40102;50.906;6.972;2023-02-12T08:38:25;103265.22;;;6.61;93.41
54194;BME280;40102;50.906;6.972;2023-02-12T08:40:50;103259.91;;;6.53;94.28
54194;BME280;40102;50.906;6.972;2023-02-12T08:43:15;103272.28;;;6.49;94.63
54194;BME280;40102;50.906;6.972;2023-02-12T08:45:41;103269.63;;;6.40;95.34
54194;BME280;40102;50.906;6.972;2023-02-12T08:48:07;103277.59;;;6.39;95.81
54194;BME280;40102;50.906;6.972;2023-02-12T08:50:33;103263.41;;;6.34;96.28
54194;BME280;40102;50.906;6.972;2023-02-12T08:52:58;103268.72;;;6.37;96.74
54194;BME280;40102;50.906;6.972;2023-02-12T08:55:23;103266.94;;;6.36;97.00
54194;BME280;40102;50.906;6.972;2023-02-12T08:57:49;103258.09;;;6.38;97.23
54194;BME280;40102;50.906;6.972;2023-02-12T09:00:14;103263.41;;;6.38;97.19
54194;BME280;40102;50.906;6.972;2023-02-12T09:02:39;103261.66;;;6.42;97.04
54194;BME280;40102;50.906;6.972;2023-02-12T09:05:05;103263.44;;;6.47;97.50
54194;BME280;40102;50.906;6.972;2023-02-12T09:07:30;103255.44;;;6.46;97.35
54194;BME280;40102;50.906;6.972;2023-02-12T09:09:55;103265.19;;;6.48;97.35
54194;BME280;40102;50.906;6.972;2023-02-12T09:12:21;103270.53;;;6.48;97.52
54194;BME280;40102;50.906;6.972;2023-02-12T09:14:46;103256.34;;;6.42;97.56
54194;BME280;40102;50.906;6.972;2023-02-12T09:17:11;103262.53;;;6.45;97.83
54194;BME280;40102;50.906;6.972;2023-02-12T09:19:37;103270.53;;;6.48;97.89
54194;BME280;40102;50.906;6.972;2023-02-12T09:22:02;103267.88;;;6.48;97.95
54194;BME280;40102;50.906;6.972;2023-02-12T09:24:27;103265.19;;;6.48;97.77
54194;BME280;40102;50.906;6.972;2023-02-12T09:26:53;103265.22;;;6.56;98.09
54194;BME280;40102;50.906;6.972;2023-02-12T09:29:18;103267.88;;;6.55;98.19
54194;BME280;40102;50.906;6.972;2023-02-12T09:31:43;103262.56;;;6.59;98.06
54194;BME280;40102;50.906;6.972;2023-02-12T09:34:09;103275.88;;;6.67;98.05
54194;BME280;40102;50.906;6.972;2023-02-12T09:36:34;103268.78;;;6.70;98.02
54194;BME280;40102;50.906;6.972;2023-02-12T09:39:00;103272.31;;;6.78;97.86
54194;BME280;40102;50.906;6.972;2023-02-12T09:46:51;103276.75;;;6.76;96.88
54194;BME280;40102;50.906;6.972;2023-02-12T09:51:54;103275.00;;;6.78;97.46
54194;BME280;40102;50.906;6.972;2023-02-12T09:54:22;103281.19;;;6.80;97.45
54194;BME280;40102;50.906;6.972;2023-02-12T09:56:52;103275.88;;;6.82;97.50
54194;BME280;40102;50.906;6.972;2023-02-12T09:59:32;103269.66;;;6.81;97.54
54194;BME280;40102;50.906;6.972;2023-02-12T10:01:59;103287.41;;;6.87;97.59
54194;BME280;40102;50.906;6.972;2023-02-12T10:04:26;103276.75;;;6.86;97.58
54194;BME280;40102;50.906;6.972;2023-02-12T10:10:03;103282.09;;;6.92;97.73
54194;BME280;40102;50.906;6.972;2023-02-12T10:13:25;103284.75;;;6.92;97.89
54194;BME280;40102;50.906;6.972;2023-02-12T10:26:41;103289.19;;;7.12;97.65
54194;BME280;40102;50.906;6.972;2023-02-12T10:29:16;103278.53;;;7.11;97.76
54194;BME280;40102;50.906;6.972;2023-02-12T10:31:46;103289.19;;;7.15;97.60
54194;BME280;40102;50.906;6.972;2023-02-12T10:34:19;103286.50;;;7.15;97.61
54194;BME280;40102;50.906;6.972;2023-02-12T10:36:47;103289.16;;;7.22;97.42
54194;BME280;40102;50.906;6.972;2023-02-12T10:39:22;103263.44;;;7.21;97.41
54194;BME280;40102;50.906;6.972;2023-02-12T10:41:59;103282.94;;;7.29;97.19
54194;BME280;40102;50.906;6.972;2023-02-12T10:44:26;103282.06;;;7.31;97.05
54194;BME280;40102;50.906;6.972;2023-02-12T10:46:52;103262.53;;;7.29;97.07
54194;BME280;40102;50.906;6.972;2023-02-12T10:49:18;103270.53;;;7.31;96.97
54194;BME280;40102;50.906;6.972;2023-02-12T10:54:37;103272.28;;;7.41;96.18
54194;BME280;40102;50.906;6.972;2023-02-12T10:57:22;103258.94;;;7.45;95.96
54194;BME280;40102;50.906;6.972;2023-02-12T10:59:51;103264.28;;;7.50;95.99
54194;BME280;40102;50.906;6.972;2023-02-12T11:02:29;103266.91;;;7.55;95.83
54194;BME280;40102;50.906;6.972;2023-02-12T11:04:55;103258.91;;;7.58;95.68
54194;BME280;40102;50.906;6.972;2023-02-12T11:07:23;103263.34;;;7.63;95.35
54194;BME280;40102;50.906;6.972;2023-02-12T11:09:50;103262.44;;;7.66;95.02
54194;BME280;40102;50.906;6.972;2023-02-12T11:12:38;103256.22;;;7.70;94.88
54194;BME280;40102;50.906;6.972;2023-02-12T11:15:16;103258.88;;;7.73;94.54
54194;BME280;40102;50.906;6.972;2023-02-12T11:17:44;103254.44;;;7.73;94.00
54194;BME280;40102;50.906;6.972;2023-02-12T11:23:00;103258.84;;;7.77;93.82
54194;BME280;40102;50.906;6.972;2023-02-12T11:25:29;103251.75;;;7.78;93.50
54194;BME280;40102;50.906;6.972;2023-02-12T11:28:15;103253.53;;;7.79;93.30
54194;BME280;40102;50.906;6.972;2023-02-12T11:30:59;103248.19;;;7.77;93.28
54194;BME280;40102;50.906;6.972;2023-02-12T11:33:33;103242.84;;;7.79;93.00
54194;BME280;40102;50.906;6.972;2023-02-12T11:36:06;103247.28;;;7.83;92.80
54194;BME280;40102;50.906;6.972;2023-02-12T11:38:49;103234.84;;;7.84;92.81
54194;BME280;40102;50.906;6.972;2023-02-12T11:43:47;103240.16;;;7.88;91.80
54194;BME280;40102;50.906;6.972;2023-02-12T11:46:18;103218.88;;;7.80;90.98
54194;BME280;40102;50.906;6.972;2023-02-12T11:48:45;103220.66;;;7.82;90.95
54194;BME280;40102;50.906;6.972;2023-02-12T11:51:19;103222.38;;;7.89;91.36
54194;BME280;40102;50.906;6.972;2023-02-12T11:53:48;103223.25;;;7.91;91.58
54194;BME280;40102;50.906;6.972;2023-02-12T11:56:15;103217.91;;;7.94;91.57
54194;BME280;40102;50.906;6.972;2023-02-12T11:58:40;103220.56;;;7.97;91.79
54194;BME280;40102;50.906;6.972;2023-02-12T12:01:29;103209.91;;;7.98;91.69
54194;BME280;40102;50.906;6.972;2023-02-12T12:04:03;103215.22;;;8.00;91.52
54194;BME280;40102;50.906;6.972;2023-02-12T12:06:35;103209.00;;;8.01;91.34
54194;BME280;40102;50.906;6.972;2023-02-12T12:11:40;103198.31;;;8.07;91.56
54194;BME280;40102;50.906;6.972;2023-02-12T12:14:16;103204.50;;;8.12;91.61
54194;BME280;40102;50.906;6.972;2023-02-12T12:17:12;103205.34;;;8.16;91.10
54194;BME280;40102;50.906;6.972;2023-02-12T12:20:08;103201.78;;;8.17;90.98
54194;BME280;40102;50.906;6.972;2023-02-12T12:22:42;103198.22;;;8.19;90.71
54194;BME280;40102;50.906;6.972;2023-02-12T12:33:04;103192.84;;;8.24;90.61
54194;BME280;40102;50.906;6.972;2023-02-12T12:35:44;103184.84;;;8.27;90.41
54194;BME280;40102;50.906;6.972;2023-02-12T12:38:23;103181.25;;;8.31;90.07
54194;BME280;40102;50.906;6.972;2023-02-12T12:41:01;103177.69;;;8.36;89.96
54194;BME280;40102;50.906;6.972;2023-02-12T12:46:10;103167.88;;;8.41;89.35
54194;BME280;40102;50.906;6.972;2023-02-12T12:52:02;103162.47;;;8.49;89.21
54194;BME280;40102;50.906;6.972;2023-02-12T12:54:58;103160.69;;;8.51;89.19
54194;BME280;40102;50.906;6.972;2023-02-12T13:06:14;103144.44;;;8.77;87.52
54194;BME280;40102;50.906;6.972;2023-02-12T13:17:13;103120.47;;;8.71;86.14
54194;BME280;40102;50.906;6.972;2023-02-12T13:19:57;103129.28;;;8.79;86.12
54194;BME280;40102;50.906;6.972;2023-02-12T13:22:55;103127.41;;;8.89;85.92
54194;BME280;40102;50.906;6.972;2023-02-12T13:25:41;103116.81;;;8.81;86.09
54194;BME280;40102;50.906;6.972;2023-02-12T13:28:14;103135.34;;;8.95;85.21
54194;BME280;40102;50.906;6.972;2023-02-12T13:30:47;103126.47;;;8.93;85.04
54194;BME280;40102;50.906;6.972;2023-02-12T13:33:20;103122.03;;;8.92;85.02
54194;BME280;40102;50.906;6.972;2023-02-12T13:35:49;103125.59;;;8.92;85.54
54194;BME280;40102;50.906;6.972;2023-02-12T13:38:21;103112.22;;;8.94;85.29
54194;BME280;40102;50.906;6.972;2023-02-12T13:40:51;103107.81;;;8.90;85.31
54194;BME280;40102;50.906;6.972;2023-02-12T13:43:43;103114.03;;;8.93;85.22
54194;BME280;40102;50.906;6.972;2023-02-12T13:49:18;103110.50;;;8.90;85.36
54194;BME280;40102;50.906;6.972;2023-02-12T13:54:44;103112.19;;;8.97;85.32
54194;BME280;40102;50.906;6.972;2023-02-12T13:57:15;103095.38;;;8.89;85.44
54194;BME280;40102;50.906;6.972;2023-02-12T13:59:44;103092.75;;;8.86;85.59
54194;BME280;40102;50.906;6.972;2023-02-12T14:08:32;103083.88;;;8.85;85.53
54194;BME280;40102;50.906;6.972;2023-02-12T14:10:43;103088.25;;;8.89;85.57
54194;BME280;40102;50.906;6.972;2023-02-12T14:13:23;103082.94;;;8.88;85.66
54194;BME280;40102;50.906;6.972;2023-02-12T14:15:51;103077.63;;;8.86;85.82
54194;BME280;40102;50.906;6.972;2023-02-12T14:18:21;103093.53;;;8.95;85.47
54194;BME280;40102;50.906;6.972;2023-02-12T14:23:34;103096.22;;;8.94;85.71
54194;BME280;40102;50.906;6.972;2023-02-12T14:28:33;103100.66;;;8.95;85.48
54194;BME280;40102;50.906;6.972;2023-02-12T14:33:48;103096.19;;;8.97;85.90
54194;BME280;40102;50.906;6.972;2023-02-12T14:38:59;103101.56;;;8.92;85.30
54194;BME280;40102;50.906;6.972;2023-02-12T14:41:28;103083.91;;;8.81;85.21
54194;BME280;40102;50.906;6.972;2023-02-12T14:49:22;103074.19;;;8.75;85.26
54194;BME280;40102;50.906;6.972;2023-02-12T14:52:03;103088.41;;;8.75;85.42
54194;BME280;40102;50.906;6.972;2023-02-12T14:54:54;103084.88;;;8.75;85.18
54194;BME280;40102;50.906;6.972;2023-02-12T14:57:30;103091.06;;;8.79;85.30
54194;BME280;40102;50.906;6.972;2023-02-12T15:00:01;103097.25;;;8.81;85.68
54194;BME280;40102;50.906;6.972;2023-02-12T15:02:33;103106.16;;;8.81;85.58
54194;BME280;40102;50.906;6.972;2023-02-12T15:05:21;103101.72;;;8.80;85.77
54194;BME280;40102;50.906;6.972;2023-02-12T15:07:52;103099.03;;;8.80;86.00